Llano, TX

3:41 AM CST on March 04, 2015 (GMT -0600)
LCRA Llano 9 NW | Change Station
CLOSE
Current Station
Personal Weather Station
Location: Valley Spring, TX
Elevation: 1301 ft
Nearby Weather Stations

Elev 1301 ft 30.86 °N, 98.78 °W | Updated 46 minutes ago

Overcast
Overcast
56.0 °F
Feels Like 56.0 °F
N
-
Wind Variable Wind from North

Today
High -- | Low -- °F
--% Chance of Precip.
Yesterday
High -- | Low -- °F
Precip. -- in
6:58 AM 6:35 PM
Waxing Gibbous, 98% visible
Pressure 29.88 in
Visibility 4.0 miles
Clouds Few 100 ft
Scattered Clouds 600 ft
Overcast 1500 ft
Dew Point 55.0 °F
Humidity 97%
Rainfall 0.01 in
Snow Depth Not available.
UV 0 out of 12
Pollen 7.60 out of 12
Air Quality Not available.
Flu Activity Not available.
METAR KAQO 040915Z AUTO 00000KT 4SM BR FEW001 SCT006 OVC015 14/14 A2988 RMK AO2

More Conditions Fewer Conditions

Pressure 29.88 in
Visibility 4.0 miles
Clouds Few 100 ft
Scattered Clouds 600 ft
Overcast 1500 ft
Dew Point 55.0 °F
Humidity 97%
Rainfall 0.01 in
Snow Depth Not available.
UV 0 out of 12
Pollen 7.60 out of 12
Air Quality Not available.
Flu Activity Not available.
METAR KAQO 040915Z AUTO 00000KT 4SM BR FEW001 SCT006 OVC015 14/14 A2988 RMK AO2

More Conditions Fewer Conditions

10-Day Weather Forecast

Almanac

Astronomy

Mar. 04, 2015 Rise Set
Actual Time
Civil Twilight
Nautical Twilight
Astronomical Twilight
Moon
Length of Visible Light
Length of Day
Tomorrow will be .
, % of the Moon is Illuminated

Today's Extremes

State Highs State Lows

Community

WunderPhotos

Upload Photos

1,802,425 photos uploaded!

WunderBlogs® & News

Nearby

Air Quality

  Air Quality AQ Index Pollutant
Not available.

Snow Depth

Station Depth Elevation

Earthquake Activity

City Distance Mag. Time & Date
Minimum magnitude displayed is 2.5.

Coastal Water Temperatures

Place Temperature

Nearby Weather Stations